createdAt,value
2019-03-11T00:01:11.369Z,82.20
2019-03-11T00:05:20.215Z,81.00
2019-03-11T00:09:28.476Z,81.10
2019-03-11T00:13:37.051Z,82.90
2019-03-11T00:17:45.937Z,83.20
2019-03-11T00:21:54.771Z,83.60
2019-03-11T00:26:02.992Z,83.90
2019-03-11T00:30:11.471Z,84.10
2019-03-11T00:34:19.911Z,84.70
2019-03-11T00:42:41.134Z,84.80
2019-03-11T00:46:49.261Z,84.20
2019-03-11T00:50:57.393Z,84.10
2019-03-11T00:55:04.976Z,84.20
2019-03-11T00:59:13.168Z,84.40
2019-03-11T01:03:21.457Z,84.40
2019-03-11T01:07:29.597Z,85.40
2019-03-11T01:11:37.779Z,85.40
2019-03-11T01:15:45.902Z,85.70
2019-03-11T01:19:54.087Z,85.80
2019-03-11T01:24:01.679Z,86.00
2019-03-11T01:32:37.225Z,86.60
2019-03-11T01:36:45.353Z,87.40
2019-03-11T01:40:53.560Z,88.00
2019-03-11T01:45:01.700Z,88.40
2019-03-11T01:49:09.180Z,88.40
2019-03-11T01:53:16.696Z,88.50
2019-03-11T01:57:24.812Z,89.10
2019-03-11T02:01:32.974Z,89.40
2019-03-11T02:05:40.436Z,89.80
2019-03-11T02:13:50.283Z,89.90
2019-03-11T02:17:58.507Z,89.30
2019-03-11T02:22:06.692Z,88.70
2019-03-11T02:26:14.486Z,88.70
2019-03-11T02:30:22.663Z,88.80
2019-03-11T02:34:30.897Z,88.50
2019-03-11T02:38:38.375Z,88.50
2019-03-11T02:42:46.836Z,88.00
2019-03-11T02:46:55.290Z,89.10
2019-03-11T02:51:03.448Z,88.30
2019-03-11T02:55:12.383Z,88.30
2019-03-11T02:59:20.762Z,87.70
2019-03-11T03:03:34.409Z,86.70
2019-03-11T03:07:42.635Z,83.70
2019-03-11T03:11:51.056Z,82.70
2019-03-11T03:15:59.740Z,81.50
2019-03-11T03:20:08.942Z,81.60
2019-03-11T03:24:16.692Z,82.80
2019-03-11T03:28:24.865Z,83.00
2019-03-11T03:32:33.102Z,83.50
2019-03-11T03:36:41.456Z,85.00
2019-03-11T03:40:50.309Z,87.20
2019-03-11T03:45:35.132Z,87.70
2019-03-11T03:49:43.955Z,88.30
2019-03-11T03:53:51.747Z,89.00
2019-03-11T03:57:59.929Z,90.00
2019-03-11T04:02:08.186Z,88.50
2019-03-11T04:06:15.838Z,88.10
2019-03-11T04:10:25.639Z,88.30
2019-03-11T04:18:56.558Z,90.30
2019-03-11T04:23:04.806Z,89.70
2019-03-11T04:27:13.040Z,89.40
2019-03-11T04:31:21.161Z,87.70
2019-03-11T04:35:28.676Z,86.30
2019-03-11T04:39:36.137Z,84.80
2019-03-11T04:43:43.595Z,85.50
2019-03-11T04:47:51.709Z,85.00
2019-03-11T04:51:59.146Z,83.60
2019-03-11T04:56:06.594Z,84.00
2019-03-11T05:00:15.283Z,84.00
2019-03-11T05:04:22.734Z,83.40
2019-03-11T05:08:30.178Z,82.70
2019-03-11T05:12:37.617Z,81.90
2019-03-11T05:16:46.184Z,80.70
2019-03-11T05:20:54.519Z,81.00
2019-03-11T05:25:02.170Z,80.90
2019-03-11T05:29:10.290Z,81.80
2019-03-11T05:33:19.448Z,80.50
2019-03-11T05:37:27.522Z,79.40
2019-03-11T05:41:35.053Z,79.40
2019-03-11T05:45:42.813Z,77.30
2019-03-11T05:49:51.778Z,78.10
2019-03-11T05:53:59.670Z,77.70
2019-03-11T05:58:07.846Z,78.60
2019-03-11T06:02:15.953Z,77.40
2019-03-11T06:06:24.066Z,78.20
2019-03-11T06:10:31.777Z,79.00
2019-03-11T06:14:39.903Z,77.10
2019-03-11T06:18:50.446Z,77.10
2019-03-11T06:22:58.802Z,76.00
2019-03-11T06:27:06.931Z,77.10
2019-03-11T06:35:24.371Z,77.70
2019-03-11T06:39:31.996Z,77.70
2019-03-11T06:43:41.060Z,77.40
2019-03-11T06:47:49.192Z,78.00
2019-03-11T06:51:57.480Z,76.60
2019-03-11T06:56:05.702Z,75.40
2019-03-11T07:00:14.760Z,75.40
2019-03-11T07:04:22.935Z,74.90
2019-03-11T07:08:31.105Z,74.70
2019-03-11T07:12:38.750Z,76.30
2019-03-11T07:16:46.935Z,77.20
2019-03-11T07:20:55.100Z,78.50
2019-03-11T07:25:03.272Z,78.90
2019-03-11T07:29:11.423Z,78.60
2019-03-11T07:33:19.630Z,79.40
2019-03-11T07:37:27.913Z,80.80
2019-03-11T07:41:36.120Z,83.20
2019-03-11T07:45:44.269Z,84.00
2019-03-11T07:49:51.763Z,84.00
2019-03-11T07:53:59.940Z,83.70
2019-03-11T07:58:07.437Z,84.00
2019-03-11T08:02:14.912Z,83.20
2019-03-11T08:06:23.624Z,82.40
2019-03-11T08:10:31.819Z,79.20
2019-03-11T08:14:39.366Z,77.90
2019-03-11T08:18:47.541Z,76.40
2019-03-11T08:22:55.700Z,73.20
2019-03-11T08:27:03.865Z,71.80
2019-03-11T08:31:12.035Z,70.20
2019-03-11T08:35:20.195Z,67.90
2019-03-11T08:39:28.355Z,66.40
2019-03-11T08:43:35.882Z,64.50
2019-03-11T08:47:44.236Z,63.40
2019-03-11T08:51:52.194Z,64.20
2019-03-11T08:55:59.702Z,65.70
2019-03-11T09:00:07.854Z,66.60
2019-03-11T09:04:15.365Z,67.50
2019-03-11T09:08:22.832Z,68.00
2019-03-11T09:12:30.997Z,68.80
2019-03-11T09:16:39.163Z,68.10
2019-03-11T09:20:47.346Z,65.60
2019-03-11T09:24:55.484Z,65.70
2019-03-11T09:29:03.691Z,66.30
2019-03-11T09:33:11.856Z,65.00
2019-03-11T09:37:20.095Z,65.70
2019-03-11T09:41:28.295Z,63.20
2019-03-11T09:45:36.449Z,63.40
2019-03-11T09:49:44.789Z,62.40
2019-03-11T09:53:52.970Z,61.70
2019-03-11T09:58:01.135Z,62.80
2019-03-11T10:02:12.182Z,64.40
2019-03-11T10:06:17.701Z,64.80
2019-03-11T10:10:25.868Z,65.70
2019-03-11T10:14:34.032Z,66.70
2019-03-11T10:18:42.209Z,66.60
2019-03-11T10:22:50.408Z,64.70
2019-03-11T10:26:58.551Z,64.10
2019-03-11T10:31:06.739Z,65.10
2019-03-11T10:35:30.626Z,63.90
2019-03-11T10:39:25.151Z,63.70
2019-03-11T10:43:33.534Z,64.10
2019-03-11T10:47:41.726Z,64.50
2019-03-11T10:51:49.917Z,62.20
2019-03-11T10:55:59.936Z,58.70
2019-03-11T11:00:09.245Z,58.30
2019-03-11T11:04:17.424Z,58.20
2019-03-11T11:08:25.597Z,58.70
2019-03-11T11:12:34.465Z,59.80
2019-03-11T11:16:42.603Z,63.00
2019-03-11T11:20:50.760Z,62.90
2019-03-11T11:25:02.889Z,65.40
2019-03-11T11:33:24.074Z,68.70
2019-03-11T11:37:32.211Z,70.60
2019-03-11T11:41:40.779Z,73.70
2019-03-11T11:45:48.993Z,71.40
2019-03-11T11:49:57.314Z,69.30
2019-03-11T11:54:05.431Z,67.00
2019-03-11T11:58:13.561Z,63.10
2019-03-11T12:02:21.830Z,62.10
2019-03-11T12:06:30.082Z,63.30
2019-03-11T12:10:38.238Z,62.60
2019-03-11T12:14:46.378Z,61.20
2019-03-11T12:18:54.595Z,61.20
2019-03-11T12:23:02.050Z,62.50
2019-03-11T12:27:10.215Z,64.40
2019-03-11T12:31:19.266Z,65.30
2019-03-11T12:35:26.503Z,64.20
2019-03-11T12:39:34.871Z,63.40
2019-03-11T12:43:42.347Z,62.00
2019-03-11T12:47:49.914Z,62.60
2019-03-11T12:51:58.043Z,67.10
2019-03-11T12:56:06.221Z,67.20
2019-03-11T13:00:15.992Z,64.50
2019-03-11T13:04:24.173Z,62.30
2019-03-11T13:08:33.989Z,62.90
2019-03-11T13:12:41.637Z,62.60
2019-03-11T13:16:49.331Z,61.80
2019-03-11T13:20:58.824Z,63.30
2019-03-11T13:25:07.426Z,61.60
2019-03-11T13:29:15.846Z,61.30
2019-03-11T13:33:24.058Z,59.20
2019-03-11T13:37:34.252Z,59.80
2019-03-11T13:41:42.755Z,59.90
2019-03-11T13:45:50.855Z,57.10
2019-03-11T13:54:14.568Z,55.60
2019-03-11T13:58:22.176Z,56.70
2019-03-11T14:02:30.567Z,57.90
2019-03-11T14:06:38.048Z,56.70
2019-03-11T14:10:46.824Z,55.40
2019-03-11T14:14:54.992Z,57.00
2019-03-11T14:19:03.178Z,57.30
2019-03-11T14:23:11.340Z,57.10
2019-03-11T14:27:19.512Z,57.60
2019-03-11T14:31:27.721Z,57.50
2019-03-11T14:35:35.884Z,56.10
2019-03-11T14:39:44.052Z,56.40
2019-03-11T14:43:52.270Z,57.90
2019-03-11T14:48:00.440Z,58.20
2019-03-11T14:52:08.615Z,57.30
2019-03-11T14:56:16.761Z,57.00
2019-03-11T15:00:24.952Z,55.90
2019-03-11T15:04:33.149Z,56.30
2019-03-11T15:08:41.296Z,57.80
2019-03-11T15:12:49.498Z,57.00
2019-03-11T15:16:57.653Z,56.90
2019-03-11T15:21:05.944Z,57.90
2019-03-11T15:25:14.045Z,60.80
2019-03-11T15:29:22.188Z,63.70
2019-03-11T15:33:30.357Z,66.90
2019-03-11T15:37:38.552Z,69.10
2019-03-11T15:41:46.704Z,69.90
2019-03-11T15:45:54.919Z,69.40
2019-03-11T15:50:03.084Z,68.00
2019-03-11T15:54:11.265Z,68.00
2019-03-11T15:58:19.441Z,68.10
2019-03-11T16:02:27.584Z,68.80
2019-03-11T16:06:35.779Z,68.40
2019-03-11T16:10:43.946Z,67.60
2019-03-11T16:14:52.275Z,67.70
2019-03-11T16:19:00.366Z,68.30
2019-03-11T16:23:08.521Z,69.40
2019-03-11T16:27:16.725Z,70.70
2019-03-11T16:31:24.947Z,71.80
2019-03-11T16:35:33.092Z,72.10
2019-03-11T16:39:41.267Z,72.50
2019-03-11T16:43:49.478Z,73.60
2019-03-11T16:52:14.430Z,73.90
2019-03-11T16:56:22.633Z,75.10
2019-03-11T17:00:34.699Z,75.80
2019-03-11T17:04:42.851Z,75.70
2019-03-11T17:08:51.025Z,75.80
2019-03-11T17:12:59.223Z,76.10
2019-03-11T17:17:07.380Z,75.00
2019-03-11T17:21:15.640Z,75.20
2019-03-11T17:25:23.805Z,76.60
2019-03-11T17:29:31.982Z,76.60
2019-03-11T17:33:40.205Z,77.50
2019-03-11T17:37:48.446Z,78.10
2019-03-11T17:41:56.639Z,78.40
2019-03-11T17:46:04.827Z,78.80
2019-03-11T17:50:13.518Z,78.90
2019-03-11T17:54:22.694Z,79.20
2019-03-11T17:58:30.600Z,78.90
2019-03-11T18:02:38.765Z,79.10
2019-03-11T18:06:47.241Z,78.60
2019-03-11T18:10:56.299Z,78.30
2019-03-11T18:15:04.503Z,78.50
2019-03-11T18:19:12.685Z,77.20
2019-03-11T18:23:21.396Z,77.60
2019-03-11T18:27:29.868Z,77.50
2019-03-11T18:31:38.056Z,77.70
2019-03-11T18:35:46.189Z,78.30
2019-03-11T18:39:54.933Z,77.50
2019-03-11T18:44:03.079Z,77.20
2019-03-11T18:48:11.253Z,77.30
2019-03-11T18:52:20.149Z,77.20
2019-03-11T18:56:28.541Z,76.80
2019-03-11T19:00:36.737Z,76.70
2019-03-11T19:04:44.856Z,77.20
2019-03-11T19:08:53.686Z,77.00
2019-03-11T19:13:02.019Z,76.40
2019-03-11T19:17:10.330Z,77.10
2019-03-11T19:21:18.747Z,77.50
2019-03-11T19:25:27.372Z,77.60
2019-03-11T19:29:35.537Z,78.10
2019-03-11T19:33:43.735Z,78.30
2019-03-11T19:37:52.501Z,78.90
2019-03-11T19:42:00.967Z,79.20
2019-03-11T19:46:09.181Z,78.80
2019-03-11T19:50:17.941Z,79.20
2019-03-11T19:54:26.638Z,79.50
2019-03-11T19:58:34.819Z,79.80
2019-03-11T20:02:43.141Z,80.10
2019-03-11T20:06:51.954Z,79.80
2019-03-11T20:11:00.758Z,80.80
2019-03-11T20:15:09.827Z,81.10
2019-03-11T20:19:18.176Z,81.20
2019-03-11T20:23:27.336Z,81.60
2019-03-11T20:27:35.614Z,81.80
2019-03-11T20:31:43.822Z,81.80
2019-03-11T20:35:52.453Z,82.50
2019-03-11T20:40:00.868Z,82.70
2019-03-11T20:44:09.028Z,82.80
2019-03-11T20:48:16.555Z,83.00
2019-03-11T20:52:24.543Z,83.60
2019-03-11T20:56:33.352Z,82.70
2019-03-11T21:00:41.507Z,83.70
2019-03-11T21:08:57.589Z,83.40
2019-03-11T21:13:05.845Z,84.40
2019-03-11T21:17:25.322Z,85.00
2019-03-11T21:21:22.028Z,85.30
2019-03-11T21:25:30.362Z,85.60
2019-03-11T21:29:38.972Z,87.60
2019-03-11T21:33:58.066Z,87.30
2019-03-11T21:37:55.593Z,87.90
2019-03-11T21:42:05.650Z,88.30
2019-03-11T21:46:12.352Z,88.40
2019-03-11T21:50:20.602Z,88.70
2019-03-11T21:54:29.172Z,89.20
2019-03-11T21:58:37.427Z,89.50
2019-03-11T22:02:45.620Z,90.00
2019-03-11T22:06:54.426Z,90.00
2019-03-11T22:11:02.843Z,90.10
2019-03-11T22:15:11.801Z,90.20
2019-03-11T22:19:20.929Z,90.30
2019-03-11T22:23:29.565Z,90.50
2019-03-11T22:27:37.950Z,90.50
2019-03-11T22:31:46.334Z,90.80
2019-03-11T22:35:54.884Z,90.70
2019-03-11T22:40:05.781Z,90.50
2019-03-11T22:44:11.616Z,90.40
2019-03-11T22:48:21.014Z,90.60
2019-03-11T22:52:29.635Z,90.60
2019-03-11T23:00:56.189Z,90.50
2019-03-11T23:05:04.479Z,90.70
2019-03-11T23:09:12.781Z,90.80
2019-03-11T23:13:21.811Z,90.80
2019-03-11T23:17:29.746Z,90.70
2019-03-11T23:21:37.985Z,90.90
2019-03-11T23:25:46.332Z,90.80
2019-03-11T23:29:55.348Z,90.60
2019-03-11T23:34:04.005Z,91.40
2019-03-11T23:38:11.578Z,90.90
2019-03-11T23:42:20.275Z,91.40
2019-03-11T23:46:28.968Z,90.70
2019-03-11T23:50:37.219Z,91.20
2019-03-11T23:54:45.413Z,91.20
2019-03-11T23:58:53.683Z,91.50
